地図

経路データ

SID SEASON NUMBER BASIN SUBBASIN NAME ISO_TIME NATURE LAT LON WMO_WIND WMO_PRES WMO_AGENCY TRACK_TYPE DIST2LAND LANDFALL IFLAG USA_AGENCY USA_ATCF_ID USA_LAT USA_LON USA_RECORD USA_STATUS USA_WIND USA_PRES USA_SSHS USA_R34_NE USA_R34_SE USA_R34_SW USA_R34_NW USA_R50_NE USA_R50_SE USA_R50_SW USA_R50_NW USA_R64_NE USA_R64_SE USA_R64_SW USA_R64_NW USA_POCI USA_ROCI USA_RMW USA_EYE TOKYO_LAT TOKYO_LON TOKYO_GRADE TOKYO_WIND TOKYO_PRES TOKYO_R50_DIR TOKYO_R50_LONG TOKYO_R50_SHORT TOKYO_R30_DIR TOKYO_R30_LONG TOKYO_R30_SHORT TOKYO_LAND CMA_LAT CMA_LON CMA_CAT CMA_WIND CMA_PRES HKO_LAT HKO_LON HKO_CAT HKO_WIND HKO_PRES NEWDELHI_LAT NEWDELHI_LON NEWDELHI_GRADE NEWDELHI_WIND NEWDELHI_PRES NEWDELHI_CI NEWDELHI_DP NEWDELHI_POCI REUNION_LAT REUNION_LON REUNION_TYPE REUNION_WIND REUNION_PRES REUNION_TNUM REUNION_CI REUNION_RMW REUNION_R34_NE REUNION_R34_SE REUNION_R34_SW REUNION_R34_NW REUNION_R50_NE REUNION_R50_SE REUNION_R50_SW REUNION_R50_NW REUNION_R64_NE REUNION_R64_SE REUNION_R64_SW REUNION_R64_NW BOM_LAT BOM_LON BOM_TYPE BOM_WIND BOM_PRES BOM_TNUM BOM_CI BOM_RMW BOM_R34_NE BOM_R34_SE BOM_R34_SW BOM_R34_NW BOM_R50_NE BOM_R50_SE BOM_R50_SW BOM_R50_NW BOM_R64_NE BOM_R64_SE BOM_R64_SW BOM_R64_NW BOM_ROCI BOM_POCI BOM_EYE BOM_POS_METHOD BOM_PRES_METHOD NADI_LAT NADI_LON NADI_CAT NADI_WIND NADI_PRES WELLINGTON_LAT WELLINGTON_LON WELLINGTON_WIND WELLINGTON_PRES DS824_LAT DS824_LON DS824_STAGE DS824_WIND DS824_PRES TD9636_LAT TD9636_LON TD9636_STAGE TD9636_WIND TD9636_PRES TD9635_LAT TD9635_LON TD9635_WIND TD9635_PRES TD9635_ROCI NEUMANN_LAT NEUMANN_LON NEUMANN_CLASS NEUMANN_WIND NEUMANN_PRES MLC_LAT MLC_LON MLC_CLASS MLC_WIND MLC_PRES USA_GUST BOM_GUST BOM_GUST_PER REUNION_GUST REUNION_GUST_PER USA_SEAHGT USA_SEARAD_NE USA_SEARAD_SE USA_SEARAD_SW USA_SEARAD_NW STORM_SPEED STORM_DIR
1911209N16137 1911 45 WP MM NOT_NAMED 1911-07-27 16:00:00 NR 15.8000 137.000 main 1304 1233 __________O___ -1 15.8000 137.000 7 19 274
1911209N16137 1911 45 WP MM NOT_NAMED 1911-07-27 18:00:00 NR 15.8467 136.332 main 1233 1145 __________P___ -1 15.8467 136.332 7 19 274
1911209N16137 1911 45 WP MM NOT_NAMED 1911-07-27 21:00:00 NR 15.9096 135.361 main 1145 1059 __________P___ -1 15.9096 135.361 7 18 274
1911209N16137 1911 45 WP MM NOT_NAMED 1911-07-28 00:00:00 NR 15.9597 134.472 main 1059 981 __________P___ -1 15.9597 134.472 7 16 273
1911209N16137 1911 45 WP MM NOT_NAMED 1911-07-28 03:00:00 NR 15.9932 133.715 main 981 962 __________P___ -1 15.9932 133.715 7 14 272
1911209N16137 1911 45 WP MM NOT_NAMED 1911-07-28 04:00:00 NR 16.0000 133.500 main 962 923 __________O___ -1 16.0000 133.500 7 11 271
1911209N16137 1911 45 WP MM NOT_NAMED 1911-07-28 06:00:00 NR 16.0072 133.133 main 923 885 __________P___ -1 16.0072 133.133 7 9 271
1911209N16137 1911 45 WP MM NOT_NAMED 1911-07-28 09:00:00 NR 16.0068 132.709 main 885 857 __________P___ -1 16.0068 132.709 7 7 270
1911209N16137 1911 45 WP MM NOT_NAMED 1911-07-28 12:00:00 NR 16.0010 132.383 main 857 829 __________P___ -1 16.0010 132.383 7 6 269
1911209N16137 1911 45 WP MM NOT_NAMED 1911-07-28 15:00:00 NR 15.9986 132.097 main 829 820 __________P___ -1 15.9986 132.097 7 6 270
1911209N16137 1911 45 WP MM NOT_NAMED 1911-07-28 16:00:00 NR 16.0000 132.000 main 820 801 __________O___ -1 16.0000 132.000 7 6 272
1911209N16137 1911 45 WP MM NOT_NAMED 1911-07-28 18:00:00 NR 16.0106 131.774 main 801 765 __________P___ -1 16.0106 131.774 7 6 274
1911209N16137 1911 45 WP MM NOT_NAMED 1911-07-28 21:00:00 NR 16.0330 131.442 main 765 745 __________P___ -1 16.0330 131.442 7 6 274
1911209N16137 1911 45 WP MM NOT_NAMED 1911-07-29 00:00:00 NR 16.0606 131.101 main 745 710 __________P___ -1 16.0606 131.101 7 7 275
1911209N16137 1911 45 WP MM NOT_NAMED 1911-07-29 03:00:00 NR 16.0902 130.732 main 710 702 __________P___ -1 16.0902 130.732 7 7 275
1911209N16137 1911 45 WP MM NOT_NAMED 1911-07-29 04:00:00 NR 16.1000 130.600 main 702 677 __________O___ -1 16.1000 130.600 3 8 273
1911209N16137 1911 45 WP MM NOT_NAMED 1911-07-29 06:00:00 NR 16.1141 130.312 main 677 630 __________P___ -1 16.1141 130.312 3 9 273
1911209N16137 1911 45 WP MM NOT_NAMED 1911-07-29 09:00:00 NR 16.1351 129.848 main 630 595 __________P___ -1 16.1351 129.848 3 9 273
1911209N16137 1911 45 WP MM NOT_NAMED 1911-07-29 12:00:00 NR 16.1588 129.360 main 595 547 __________P___ -1 16.1588 129.360 3 9 273
1911209N16137 1911 45 WP MM NOT_NAMED 1911-07-29 15:00:00 NR 16.1883 128.864 main 547 528 __________P___ -1 16.1883 128.864 3 10 274
1911209N16137 1911 45 WP MM NOT_NAMED 1911-07-29 16:00:00 NR 16.2000 128.700 main 528 500 __________O___ -1 16.2000 128.700 4 9 274
1911209N16137 1911 45 WP MM NOT_NAMED 1911-07-29 18:00:00 NR 16.2223 128.375 main 500 462 __________P___ -1 16.2223 128.375 4 9 275
1911209N16137 1911 45 WP MM NOT_NAMED 1911-07-29 21:00:00 NR 16.2620 127.888 main 462 419 __________P___ -1 16.2620 127.888 4 9 276
1911209N16137 1911 45 WP MM NOT_NAMED 1911-07-30 00:00:00 NR 16.3120 127.410 main 419 387 __________P___ -1 16.3120 127.410 4 9 277
1911209N16137 1911 45 WP MM NOT_NAMED 1911-07-30 03:00:00 NR 16.3754 126.948 main 387 379 __________P___ -1 16.3754 126.948 4 9 279
1911209N16137 1911 45 WP MM NOT_NAMED 1911-07-30 04:00:00 NR 16.4000 126.800 main 379 357 __________O___ -1 16.4000 126.800 4 9 280
1911209N16137 1911 45 WP MM NOT_NAMED 1911-07-30 06:00:00 NR 16.4524 126.506 main 366 340 __________P___ -1 16.4524 126.506 4 8 282
1911209N16137 1911 45 WP MM NOT_NAMED 1911-07-30 09:00:00 NR 16.5438 126.083 main 340 327 __________P___ -1 16.5438 126.083 4 8 284
1911209N16137 1911 45 WP MM NOT_NAMED 1911-07-30 12:00:00 NR 16.6477 125.685 main 327 298 __________P___ -1 16.6477 125.685 4 8 286
1911209N16137 1911 45 WP MM NOT_NAMED 1911-07-30 15:00:00 NR 16.7608 125.316 main 298 287 __________P___ -1 16.7608 125.316 4 7 288
1911209N16137 1911 45 WP MM NOT_NAMED 1911-07-30 16:00:00 NR 16.8000 125.200 main 287 266 __________O___ -1 16.8000 125.200 4 7 290
1911209N16137 1911 45 WP MM NOT_NAMED 1911-07-30 18:00:00 NR 16.8719 124.990 main 266 233 __________P___ -1 16.8719 124.990 4 6 291
1911209N16137 1911 45 WP MM NOT_NAMED 1911-07-30 21:00:00 NR 16.9863 124.701 main 233 202 __________P___ -1 16.9863 124.701 4 6 294
1911209N16137 1911 45 WP MM NOT_NAMED 1911-07-31 00:00:00 NR 17.1114 124.417 main 202 171 __________P___ -1 17.1114 124.417 4 6 295
1911209N16137 1911 45 WP MM NOT_NAMED 1911-07-31 03:00:00 NR 17.2502 124.112 main 173 162 __________P___ -1 17.2502 124.112 4 7 295
1911209N16137 1911 45 WP MM NOT_NAMED 1911-07-31 04:00:00 NR 17.3000 124.000 main 162 135 __________O___ -1 17.3000 124.000 4 8 295
1911209N16137 1911 45 WP MM NOT_NAMED 1911-07-31 06:00:00 NR 17.4105 123.745 main 135 101 __________P___ -1 17.4105 123.745 4 8 294
1911209N16137 1911 45 WP MM NOT_NAMED 1911-07-31 09:00:00 NR 17.5890 123.332 main 101 77 __________P___ -1 17.5890 123.332 4 9 294
1911209N16137 1911 45 WP MM NOT_NAMED 1911-07-31 12:00:00 NR 17.7716 122.894 main 77 30 __________P___ -1 17.7716 122.894 4 9 293
1911209N16137 1911 45 WP MM NOT_NAMED 1911-07-31 15:00:00 NR 17.9459 122.448 main 30 15 __________P___ -1 17.9459 122.448 4 9 292
1911209N16137 1911 45 WP MM NOT_NAMED 1911-07-31 16:00:00 NR 18.0000 122.300 main 15 0 __________O___ -1 18.0000 122.300 4 9 290
1911209N16137 1911 45 WP MM NOT_NAMED 1911-07-31 18:00:00 NR 18.1000 122.003 main 0 0 __________P___ -1 18.1000 122.003 4 9 289
1911209N16137 1911 45 WP MM NOT_NAMED 1911-07-31 21:00:00 NR 18.2375 121.558 main 0 0 __________P___ -1 18.2375 121.558 4 9 287
1911209N16137 1911 45 WP MM NOT_NAMED 1911-08-01 00:00:00 NR 18.3601 121.127 main 0 0 __________P___ -1 18.3601 121.127 4 8 286
1911209N16137 1911 45 WP MM NOT_NAMED 1911-08-01 03:00:00 NR 18.4675 120.725 main 10 10 __________P___ -1 18.4675 120.725 4 8 286
1911209N16137 1911 45 WP MM NOT_NAMED 1911-08-01 04:00:00 NR 18.5000 120.600 main 11 11 __________O___ -1 18.5000 120.600 4 7 286
1911209N16137 1911 45 WP MM NOT_NAMED 1911-08-01 06:00:00 NR 18.5611 120.371 main 30 30 __________P___ -1 18.5611 120.371 4 6 285
1911209N16137 1911 45 WP MM NOT_NAMED 1911-08-01 09:00:00 NR 18.6403 120.060 main 57 67 __________P___ -1 18.6403 120.060 4 6 285
1911209N16137 1911 45 WP MM NOT_NAMED 1911-08-01 12:00:00 NR 18.7104 119.773 main 90 90 __________P___ -1 18.7104 119.773 4 6 284
1911209N16137 1911 45 WP MM NOT_NAMED 1911-08-01 15:00:00 NR 18.7773 119.494 main 124 124 __________P___ -1 18.7773 119.494 4 5 284
1911209N16137 1911 45 WP MM NOT_NAMED 1911-08-01 16:00:00 NR 18.8000 119.400 main 134 134 __________O___ -1 18.8000 119.400 4 6 285
1911209N16137 1911 45 WP MM NOT_NAMED 1911-08-01 18:00:00 NR 18.8525 119.205 main 157 157 __________P___ -1 18.8525 119.205 4 6 286
1911209N16137 1911 45 WP MM NOT_NAMED 1911-08-01 21:00:00 NR 18.9313 118.913 main 187 187 __________P___ -1 18.9313 118.913 4 6 286
1911209N16137 1911 45 WP MM NOT_NAMED 1911-08-02 00:00:00 NR 19.0076 118.616 main 221 221 __________P___ -1 19.0076 118.616 4 6 284
1911209N16137 1911 45 WP MM NOT_NAMED 1911-08-02 03:00:00 NR 19.0782 118.307 main 254 254 __________P___ -1 19.0782 118.307 4 6 283
1911209N16137 1911 45 WP MM NOT_NAMED 1911-08-02 04:00:00 NR 19.1000 118.200 main 264 264 __________O___ -1 19.1000 118.200 4 6 281
1911209N16137 1911 45 WP MM NOT_NAMED 1911-08-02 06:00:00 NR 19.1364 117.975 main 284 284 __________P___ -1 19.1364 117.975 4 7 279
1911209N16137 1911 45 WP MM NOT_NAMED 1911-08-02 09:00:00 NR 19.1847 117.626 main 328 328 __________P___ -1 19.1847 117.626 4 7 278
1911209N16137 1911 45 WP MM NOT_NAMED 1911-08-02 12:00:00 NR 19.2308 117.269 main 358 368 __________P___ -1 19.2308 117.269 4 7 278
1911209N16137 1911 45 WP MM NOT_NAMED 1911-08-02 15:00:00 NR 19.2812 116.916 main 396 394 __________P___ -1 19.2812 116.916 4 7 279
1911209N16137 1911 45 WP MM NOT_NAMED 1911-08-02 16:00:00 NR 19.3000 116.800 main 394 389 __________O___ -1 19.3000 116.800 4 7 280
1911209N16137 1911 45 WP MM NOT_NAMED 1911-08-02 18:00:00 NR 19.3416 116.567 main 389 371 __________P___ -1 19.3416 116.567 4 7 281
1911209N16137 1911 45 WP MM NOT_NAMED 1911-08-02 21:00:00 NR 19.4104 116.224 main 371 351 __________P___ -1 19.4104 116.224 4 6 283
1911209N16137 1911 45 WP MM NOT_NAMED 1911-08-03 00:00:00 NR 19.4867 115.896 main 351 330 __________P___ -1 19.4867 115.896 4 6 285
1911209N16137 1911 45 WP MM NOT_NAMED 1911-08-03 03:00:00 NR 19.5704 115.594 main 330 326 __________P___ -1 19.5704 115.594 4 6 287
1911209N16137 1911 45 WP MM NOT_NAMED 1911-08-03 04:00:00 NR 19.6000 115.500 main 326 319 __________O___ -1 19.6000 115.500 4 5 286
1911209N16137 1911 45 WP MM NOT_NAMED 1911-08-03 06:00:00 NR 19.6450 115.322 main 319 302 __________P___ -1 19.6450 115.322 4 5 287
1911209N16137 1911 45 WP MM NOT_NAMED 1911-08-03 09:00:00 NR 19.7187 115.080 main 302 286 __________P___ -1 19.7187 115.080 4 5 291
1911209N16137 1911 45 WP MM NOT_NAMED 1911-08-03 12:00:00 NR 19.8136 114.862 main 286 271 __________P___ -1 19.8136 114.862 4 5 300
1911209N16137 1911 45 WP MM NOT_NAMED 1911-08-03 15:00:00 NR 19.9453 114.663 main 271 259 __________P___ -1 19.9453 114.663 4 5 307
1911209N16137 1911 45 WP MM NOT_NAMED 1911-08-03 16:00:00 NR 20.0000 114.600 main 259 246 __________O___ -1 20.0000 114.600 4 5 317
1911209N16137 1911 45 WP MM NOT_NAMED 1911-08-03 18:00:00 NR 20.1429 114.464 main 246 212 __________P___ -1 20.1429 114.464 4 6 322
1911209N16137 1911 45 WP MM NOT_NAMED 1911-08-03 21:00:00 NR 20.3953 114.273 main 212 176 __________P___ -1 20.3953 114.273 4 6 327
1911209N16137 1911 45 WP MM NOT_NAMED 1911-08-04 00:00:00 NR 20.6656 114.099 main 176 145 __________P___ -1 20.6656 114.099 4 6 330
1911209N16137 1911 45 WP MM NOT_NAMED 1911-08-04 03:00:00 NR 20.9227 113.946 main 145 137 __________P___ -1 20.9227 113.946 4 6 331
1911209N16137 1911 45 WP MM NOT_NAMED 1911-08-04 04:00:00 NR 21.0000 113.900 main 137 121 __________O___ -1 21.0000 113.900 4 5 329
1911209N16137 1911 45 WP MM NOT_NAMED 1911-08-04 06:00:00 NR 21.1201 113.816 main 121 98 __________P___ -1 21.1201 113.816 4 4 327
1911209N16137 1911 45 WP MM NOT_NAMED 1911-08-04 09:00:00 NR 21.2751 113.709 main 98 83 __________P___ -1 21.2751 113.709 4 3 328
1911209N16137 1911 45 WP MM NOT_NAMED 1911-08-04 12:00:00 NR 21.4137 113.617 main 83 59 __________P___ -1 21.4137 113.617 4 3 329
1911209N16137 1911 45 WP MM NOT_NAMED 1911-08-04 15:00:00 NR 21.5515 113.530 main 59 59 __________P___ -1 21.5515 113.530 4 3 329
1911209N16137 1911 45 WP MM NOT_NAMED 1911-08-04 16:00:00 NR 21.6000 113.500 main 59 45 __________O___ -1 21.6000 113.500 4 3 329
1911209N16137 1911 45 WP MM NOT_NAMED 1911-08-04 18:00:00 NR 21.7031 113.439 main 45 22 __________P___ -1 21.7031 113.439 4 4 331
1911209N16137 1911 45 WP MM NOT_NAMED 1911-08-04 21:00:00 NR 21.8712 113.341 main 22 0 __________P___ -1 21.8712 113.341 4 4 332
1911209N16137 1911 45 WP MM NOT_NAMED 1911-08-05 00:00:00 NR 22.0510 113.240 main 0 0 __________P___ -1 22.0510 113.240 4 4 332
1911209N16137 1911 45 WP MM NOT_NAMED 1911-08-05 03:00:00 NR 22.2373 113.135 main 0 0 __________P___ -1 22.2373 113.135 4 4 332
1911209N16137 1911 45 WP MM NOT_NAMED 1911-08-05 04:00:00 NR 22.3000 113.100 main 0 __________O___ -1 22.3000 113.100 4 4 322

デジタル台風データ・検索

IBTrACS Databaseについて

本データベースは、米国NOAAが公開する1842年以降の世界の熱帯低気圧のベストトラックデータアーカイブInternational Best Track Archive for Climate Stewardship (IBTrACS)を、ウェブで閲覧しやすい形式に変換したものです。

最終更新日:2021-12-03